createdAt,value
2023-04-07T00:00:51.677Z,31.77
2023-04-07T00:03:40.877Z,39.27
2023-04-07T00:06:29.725Z,35.28
2023-04-07T00:09:17.107Z,35.80
2023-04-07T00:12:04.707Z,36.95
2023-04-07T00:14:52.194Z,34.00
2023-04-07T00:17:39.502Z,30.23
2023-04-07T00:20:27.117Z,36.03
2023-04-07T00:23:14.717Z,35.25
2023-04-07T00:26:02.524Z,39.65
2023-04-07T00:28:50.022Z,34.67
2023-04-07T00:31:37.649Z,37.20
2023-04-07T00:34:24.727Z,36.05
2023-04-07T00:37:11.962Z,35.90
2023-04-07T00:39:59.580Z,38.17
2023-04-07T00:42:46.834Z,37.17
2023-04-07T00:45:34.512Z,34.33
2023-04-07T00:48:22.688Z,39.42
2023-04-07T00:51:10.371Z,34.08
2023-04-07T00:53:57.683Z,38.17
2023-04-07T00:56:45.076Z,36.28
2023-04-07T00:59:32.451Z,37.10
2023-04-07T01:02:35.427Z,35.28
2023-04-07T01:05:26.244Z,35.33
2023-04-07T01:08:19.543Z,37.38
2023-04-07T01:11:09.871Z,38.25
2023-04-07T01:14:01.132Z,36.93
2023-04-07T01:16:52.475Z,34.27
2023-04-07T01:19:42.967Z,32.13
2023-04-07T01:22:36.189Z,31.45
2023-04-07T01:25:48.956Z,33.73
2023-04-07T01:28:48.592Z,35.85
2023-04-07T01:31:38.383Z,34.90
2023-04-07T01:34:28.078Z,30.12
2023-04-07T01:37:16.887Z,33.83
2023-04-07T01:40:05.493Z,32.58
2023-04-07T01:42:54.041Z,34.92
2023-04-07T01:45:43.007Z,32.40
2023-04-07T01:48:30.566Z,36.05
2023-04-07T01:51:18.940Z,37.17
2023-04-07T01:54:07.530Z,37.35
2023-04-07T01:56:56.324Z,33.40
2023-04-07T01:59:43.801Z,38.75
2023-04-07T02:02:32.310Z,34.60
2023-04-07T02:05:22.483Z,34.55
2023-04-07T02:08:11.566Z,36.17
2023-04-07T02:11:00.748Z,36.75
2023-04-07T02:13:48.944Z,30.77
2023-04-07T02:16:36.963Z,34.67
2023-04-07T02:19:24.817Z,34.73
2023-04-07T02:22:12.978Z,35.78
2023-04-07T02:25:00.324Z,32.10
2023-04-07T02:27:47.604Z,33.33
2023-04-07T02:30:36.348Z,37.53
2023-04-07T02:33:23.790Z,34.13
2023-04-07T02:36:11.361Z,36.63
2023-04-07T02:38:59.337Z,36.40
2023-04-07T02:41:46.576Z,40.98
2023-04-07T02:44:34.267Z,35.20
2023-04-07T02:47:21.802Z,37.50
2023-04-07T02:50:09.366Z,32.67
2023-04-07T02:52:56.720Z,31.37
2023-04-07T02:55:44.041Z,34.13
2023-04-07T02:58:31.479Z,32.50
2023-04-07T03:01:18.798Z,35.13
2023-04-07T03:04:06.199Z,35.88
2023-04-07T03:06:53.597Z,36.42
2023-04-07T03:09:40.742Z,35.43
2023-04-07T03:12:28.298Z,32.88
2023-04-07T03:15:17.654Z,35.58
2023-04-07T03:18:05.478Z,34.15
2023-04-07T03:20:54.748Z,36.63
2023-04-07T03:23:42.309Z,33.13
2023-04-07T03:26:30.007Z,31.37
2023-04-07T03:29:17.480Z,35.30
2023-04-07T03:32:04.762Z,38.83
2023-04-07T03:34:52.169Z,32.48
2023-04-07T03:37:39.436Z,35.55
2023-04-07T03:40:26.685Z,36.58
2023-04-07T03:43:16.112Z,35.28
2023-04-07T03:46:03.654Z,34.27
2023-04-07T03:48:51.476Z,34.53
2023-04-07T03:51:38.761Z,35.35
2023-04-07T03:54:26.725Z,32.88
2023-04-07T03:57:14.594Z,31.30
2023-04-07T04:00:01.823Z,34.27
2023-04-07T04:02:49.194Z,31.70
2023-04-07T04:05:36.687Z,31.93
2023-04-07T04:08:24.677Z,31.90
2023-04-07T04:11:12.006Z,33.08
2023-04-07T04:13:59.537Z,32.55
2023-04-07T04:16:47.314Z,35.55
2023-04-07T04:19:34.584Z,36.65
2023-04-07T04:22:21.964Z,34.08
2023-04-07T04:25:09.940Z,35.60
2023-04-07T04:27:57.498Z,31.87
2023-04-07T04:30:44.765Z,37.23
2023-04-07T04:33:32.033Z,33.88
2023-04-07T04:36:19.723Z,34.67
2023-04-07T04:39:07.155Z,34.05
2023-04-07T04:41:54.353Z,30.32
2023-04-07T04:44:41.541Z,34.90
2023-04-07T04:47:28.972Z,34.85
2023-04-07T04:50:16.275Z,34.20
2023-04-07T04:53:03.691Z,34.10
2023-04-07T04:55:53.113Z,32.83
2023-04-07T04:58:43.001Z,31.02
2023-04-07T05:01:32.817Z,33.73
2023-04-07T05:04:18.878Z,34.58
2023-04-07T05:07:06.513Z,33.75
2023-04-07T05:09:54.267Z,33.95
2023-04-07T05:12:41.824Z,30.40
2023-04-07T05:15:29.176Z,31.70
2023-04-07T05:18:16.412Z,35.55
2023-04-07T05:21:03.917Z,33.70
2023-04-07T05:23:51.655Z,31.62
2023-04-07T05:26:39.075Z,32.70
2023-04-07T05:29:26.538Z,29.60
2023-04-07T05:32:13.727Z,30.05
2023-04-07T05:35:01.446Z,31.27
2023-04-07T05:37:48.682Z,33.65
2023-04-07T05:40:37.534Z,32.25
2023-04-07T05:43:25.419Z,28.60
2023-04-07T05:46:12.930Z,30.88
2023-04-07T05:49:07.156Z,29.35
2023-04-07T05:51:49.473Z,28.50
2023-04-07T05:54:37.131Z,32.35
2023-04-07T05:57:24.332Z,28.12
2023-04-07T06:00:12.720Z,31.02
2023-04-07T06:03:01.952Z,29.85
2023-04-07T06:05:49.477Z,28.38
2023-04-07T06:08:37.134Z,30.97
2023-04-07T06:11:24.836Z,28.75
2023-04-07T06:14:12.500Z,30.77
2023-04-07T06:16:59.769Z,29.60
2023-04-07T06:19:47.789Z,30.30
2023-04-07T06:22:35.833Z,29.20
2023-04-07T06:25:23.392Z,26.20
2023-04-07T06:28:11.299Z,27.45
2023-04-07T06:30:59.528Z,25.97
2023-04-07T06:33:48.124Z,31.27
2023-04-07T06:36:35.947Z,29.72
2023-04-07T06:39:23.253Z,29.23
2023-04-07T06:42:10.572Z,30.80
2023-04-07T06:44:58.151Z,33.33
2023-04-07T06:47:45.842Z,27.20
2023-04-07T06:50:33.118Z,28.85
2023-04-07T06:53:20.581Z,29.77
2023-04-07T06:56:09.746Z,30.23
2023-04-07T06:58:57.276Z,26.23
2023-04-07T07:01:45.285Z,27.35
2023-04-07T07:04:32.666Z,31.62
2023-04-07T07:07:20.635Z,28.77
2023-04-07T07:10:11.836Z,24.82
2023-04-07T07:13:00.862Z,28.27
2023-04-07T07:15:48.466Z,28.40
2023-04-07T07:18:39.133Z,25.65
2023-04-07T07:21:26.597Z,28.95
2023-04-07T07:24:13.837Z,30.27
2023-04-07T07:27:02.718Z,28.52
2023-04-07T07:29:51.547Z,27.62
2023-04-07T07:32:38.960Z,30.10
2023-04-07T07:35:26.490Z,28.75
2023-04-07T07:38:13.909Z,27.35
2023-04-07T07:41:01.019Z,27.93
2023-04-07T07:43:50.538Z,26.33
2023-04-07T07:46:39.009Z,28.77
2023-04-07T07:49:26.114Z,28.20
2023-04-07T07:52:13.525Z,32.03
2023-04-07T07:55:00.990Z,31.30
2023-04-07T07:57:48.503Z,33.13
2023-04-07T08:00:36.213Z,30.97
2023-04-07T08:03:24.478Z,31.93
2023-04-07T08:06:11.851Z,32.33
2023-04-07T08:08:59.074Z,30.32
2023-04-07T08:11:48.403Z,30.72
2023-04-07T08:14:35.722Z,32.58
2023-04-07T08:17:23.166Z,32.33
2023-04-07T08:20:11.799Z,28.05
2023-04-07T08:22:59.513Z,30.70
2023-04-07T08:25:47.094Z,28.38
2023-04-07T08:28:34.727Z,30.92
2023-04-07T08:31:22.396Z,30.50
2023-04-07T08:34:09.891Z,32.00
2023-04-07T08:36:57.366Z,33.50
2023-04-07T08:39:44.846Z,34.55
2023-04-07T08:42:34.583Z,31.35
2023-04-07T08:45:23.257Z,30.43
2023-04-07T08:48:13.532Z,30.57
2023-04-07T08:51:06.277Z,31.42
2023-04-07T08:53:55.673Z,29.67
2023-04-07T08:56:44.018Z,30.92
2023-04-07T08:59:33.949Z,28.62
2023-04-07T09:02:21.705Z,28.73
2023-04-07T09:05:10.284Z,31.07
2023-04-07T09:07:59.614Z,33.33
2023-04-07T09:10:47.127Z,29.75
2023-04-07T09:13:34.535Z,30.77
2023-04-07T09:16:22.171Z,29.57
2023-04-07T09:19:11.404Z,31.90
2023-04-07T09:21:59.104Z,31.50
2023-04-07T09:24:46.656Z,30.37
2023-04-07T09:27:34.329Z,31.07
2023-04-07T09:30:21.894Z,31.90
2023-04-07T09:33:12.083Z,31.02
2023-04-07T09:35:59.454Z,30.52
2023-04-07T09:38:46.978Z,29.87
2023-04-07T09:41:34.677Z,31.42
2023-04-07T09:44:23.138Z,31.12
2023-04-07T09:47:12.651Z,26.90
2023-04-07T09:50:01.909Z,27.17
2023-04-07T09:52:55.563Z,29.12
2023-04-07T09:55:44.396Z,27.00
2023-04-07T09:58:31.790Z,24.63
2023-04-07T10:01:20.535Z,24.32
2023-04-07T10:04:09.299Z,25.95
2023-04-07T10:06:58.201Z,23.07
2023-04-07T10:09:46.136Z,22.65
2023-04-07T10:12:41.699Z,21.35
2023-04-07T10:15:30.510Z,20.10
2023-04-07T10:18:20.376Z,20.55
2023-04-07T10:21:10.456Z,18.50
2023-04-07T10:24:19.610Z,19.32
2023-04-07T10:27:11.584Z,25.77
2023-04-07T10:30:00.431Z,22.27
2023-04-07T10:32:52.620Z,24.20
2023-04-07T10:36:06.441Z,21.48
2023-04-07T10:39:12.059Z,25.77
2023-04-07T10:41:59.385Z,21.05
2023-04-07T10:44:48.728Z,25.90
2023-04-07T10:47:39.125Z,28.83
2023-04-07T10:50:26.656Z,29.82
2023-04-07T10:53:16.271Z,24.82
2023-04-07T10:56:04.480Z,25.08
2023-04-07T10:58:54.757Z,26.30
2023-04-07T11:01:42.544Z,26.40
2023-04-07T11:04:40.967Z,25.57
2023-04-07T11:07:46.042Z,29.50
2023-04-07T11:10:35.628Z,23.30
2023-04-07T11:13:23.193Z,21.30
2023-04-07T11:16:10.761Z,21.25
2023-04-07T11:18:58.848Z,23.65
2023-04-07T11:21:46.692Z,17.35
2023-04-07T11:24:40.240Z,19.62
2023-04-07T11:27:28.474Z,20.17
2023-04-07T11:30:18.097Z,20.68
2023-04-07T11:33:06.594Z,19.77
2023-04-07T11:35:58.786Z,19.40
2023-04-07T11:38:47.194Z,18.15
2023-04-07T11:41:36.507Z,17.42
2023-04-07T11:44:25.768Z,19.92
2023-04-07T11:47:13.043Z,17.73
2023-04-07T11:50:00.708Z,15.75
2023-04-07T11:52:49.764Z,16.25
2023-04-07T11:55:37.393Z,17.90
2023-04-07T11:58:24.896Z,14.55
2023-04-07T12:01:13.824Z,14.63
2023-04-07T12:04:05.790Z,15.43
2023-04-07T12:06:53.355Z,16.85
2023-04-07T12:09:41.744Z,14.83
2023-04-07T12:12:33.185Z,13.38
2023-04-07T12:15:21.051Z,11.12
2023-04-07T12:18:08.187Z,11.90
2023-04-07T12:20:56.000Z,13.32
2023-04-07T12:23:43.570Z,13.22
2023-04-07T12:26:31.120Z,11.05
2023-04-07T12:29:20.329Z,10.63
2023-04-07T12:32:08.074Z,9.33
2023-04-07T12:34:55.727Z,9.15
2023-04-07T12:37:43.087Z,9.60
2023-04-07T12:40:31.661Z,11.63
2023-04-07T12:43:18.999Z,9.13
2023-04-07T12:46:06.309Z,8.78
2023-04-07T12:48:53.575Z,9.73
2023-04-07T12:51:41.360Z,8.15
2023-04-07T12:54:30.238Z,7.00
2023-04-07T12:57:17.710Z,6.97
2023-04-07T13:00:06.213Z,7.10
2023-04-07T13:02:53.511Z,6.12
2023-04-07T13:05:40.886Z,6.45
2023-04-07T13:08:29.209Z,4.35
2023-04-07T13:11:16.465Z,5.50
2023-04-07T13:14:04.265Z,3.55
2023-04-07T13:16:51.667Z,4.05
2023-04-07T13:19:40.168Z,5.72
2023-04-07T13:22:27.705Z,5.72
2023-04-07T13:25:15.329Z,4.53
2023-04-07T13:28:02.776Z,3.02
2023-04-07T13:30:50.002Z,3.10
2023-04-07T13:33:38.836Z,4.45
2023-04-07T13:36:28.324Z,2.98
2023-04-07T13:39:16.058Z,2.47
2023-04-07T13:42:03.285Z,5.35
2023-04-07T13:44:51.063Z,3.37
2023-04-07T13:47:38.519Z,2.35
2023-04-07T13:50:25.832Z,2.60
2023-04-07T13:53:13.336Z,3.10
2023-04-07T13:56:03.529Z,2.92
2023-04-07T13:58:51.508Z,3.08
2023-04-07T14:01:39.401Z,3.15
2023-04-07T14:04:27.302Z,3.60
2023-04-07T14:07:14.691Z,3.52
2023-04-07T14:10:02.052Z,3.42
2023-04-07T14:12:49.618Z,2.83
2023-04-07T14:15:36.971Z,3.10
2023-04-07T14:18:24.710Z,2.67
2023-04-07T14:21:12.241Z,2.77
2023-04-07T14:23:59.844Z,3.22
2023-04-07T14:26:47.480Z,3.40
2023-04-07T14:29:34.821Z,5.12
2023-04-07T14:32:22.613Z,3.47
2023-04-07T14:35:10.502Z,2.85
2023-04-07T14:37:57.932Z,3.60
2023-04-07T14:40:45.884Z,3.35
2023-04-07T14:43:33.450Z,3.02
2023-04-07T14:46:20.981Z,3.20
2023-04-07T14:49:08.466Z,3.60
2023-04-07T14:51:56.272Z,3.12
2023-04-07T14:54:43.983Z,2.45
2023-04-07T14:57:31.317Z,3.20
2023-04-07T15:00:18.797Z,2.12
2023-04-07T15:03:06.389Z,2.00
2023-04-07T15:05:54.188Z,1.77
2023-04-07T15:08:42.037Z,2.52
2023-04-07T15:11:29.553Z,1.60
2023-04-07T15:14:17.096Z,2.20
2023-04-07T15:17:04.565Z,3.35
2023-04-07T15:19:51.894Z,1.77
2023-04-07T15:22:39.387Z,2.75
2023-04-07T15:25:26.686Z,1.60
2023-04-07T15:28:14.249Z,1.52
2023-04-07T15:31:02.147Z,1.75
2023-04-07T15:33:50.127Z,1.22
2023-04-07T15:36:37.968Z,1.52
2023-04-07T15:39:25.552Z,2.30
2023-04-07T15:42:12.964Z,1.25
2023-04-07T15:45:00.362Z,2.98
2023-04-07T15:47:47.750Z,1.12
2023-04-07T15:50:36.533Z,1.95
2023-04-07T15:53:24.258Z,2.15
2023-04-07T15:56:13.598Z,1.85
2023-04-07T15:59:00.612Z,2.00
2023-04-07T16:01:48.249Z,1.87
2023-04-07T16:04:35.420Z,3.55
2023-04-07T16:07:22.793Z,2.00
2023-04-07T16:10:12.396Z,2.12
2023-04-07T16:12:59.948Z,2.33
2023-04-07T16:15:47.326Z,1.20
2023-04-07T16:18:34.559Z,0.78
2023-04-07T16:21:22.198Z,1.35
2023-04-07T16:24:09.222Z,0.85
2023-04-07T16:26:57.196Z,1.10
2023-04-07T16:29:44.902Z,0.70
2023-04-07T16:32:32.895Z,1.15
2023-04-07T16:35:21.217Z,0.90
2023-04-07T16:38:08.950Z,0.90
2023-04-07T16:41:03.997Z,1.07
2023-04-07T16:43:45.540Z,1.00
2023-04-07T16:46:33.133Z,0.95
2023-04-07T16:49:20.415Z,1.00
2023-04-07T16:52:08.132Z,0.78
2023-04-07T16:54:55.626Z,12.00
2023-04-07T16:57:43.260Z,19.82
2023-04-07T17:00:30.910Z,1.15
2023-04-07T17:03:18.576Z,1.00
2023-04-07T17:06:06.205Z,2.47
2023-04-07T17:08:53.869Z,1.87
2023-04-07T17:11:42.541Z,2.37
2023-04-07T17:14:30.662Z,1.30
2023-04-07T17:17:17.996Z,1.30
2023-04-07T17:20:05.826Z,3.62
2023-04-07T17:22:53.094Z,3.12
2023-04-07T17:25:40.549Z,2.27
2023-04-07T17:28:29.715Z,1.90
2023-04-07T17:31:17.216Z,12.43
2023-04-07T17:34:04.614Z,21.42
2023-04-07T17:36:52.399Z,12.43
2023-04-07T17:39:40.465Z,6.90
2023-04-07T17:42:29.483Z,2.92
2023-04-07T17:45:18.730Z,2.83
2023-04-07T17:48:08.174Z,3.80
2023-04-07T17:50:56.317Z,2.33
2023-04-07T17:53:43.956Z,4.83
2023-04-07T17:56:33.926Z,2.40
2023-04-07T17:59:21.133Z,3.72
2023-04-07T18:02:10.091Z,3.62
2023-04-07T18:04:59.264Z,2.77
2023-04-07T18:07:46.493Z,2.58
2023-04-07T18:10:33.833Z,2.77
2023-04-07T18:13:21.267Z,3.52
2023-04-07T18:16:11.989Z,2.40
2023-04-07T18:19:00.524Z,2.90
2023-04-07T18:21:49.202Z,2.08
2023-04-07T18:24:38.156Z,3.30
2023-04-07T18:27:27.263Z,4.25
2023-04-07T18:30:14.832Z,6.53
2023-04-07T18:33:02.478Z,7.10
2023-04-07T18:35:52.772Z,3.55
2023-04-07T18:38:40.438Z,2.98
2023-04-07T18:41:27.760Z,2.40
2023-04-07T18:44:15.548Z,1.92
2023-04-07T18:47:03.141Z,2.17
2023-04-07T18:49:50.303Z,2.42
2023-04-07T18:52:37.658Z,2.52
2023-04-07T18:55:25.287Z,1.60
2023-04-07T18:58:12.535Z,1.30
2023-04-07T19:01:00.120Z,2.52
2023-04-07T19:03:48.016Z,4.40
2023-04-07T19:06:36.049Z,2.12
2023-04-07T19:09:23.634Z,3.22
2023-04-07T19:12:11.685Z,4.28
2023-04-07T19:14:59.013Z,2.85
2023-04-07T19:17:46.640Z,3.27
2023-04-07T19:20:33.993Z,2.87
2023-04-07T19:23:21.394Z,3.70
2023-04-07T19:26:13.740Z,4.08
2023-04-07T19:29:03.473Z,3.83
2023-04-07T19:31:52.849Z,2.17
2023-04-07T19:34:40.668Z,2.72
2023-04-07T19:37:27.883Z,2.83
2023-04-07T19:40:15.293Z,3.60
2023-04-07T19:43:02.680Z,3.22
2023-04-07T19:45:49.934Z,4.67
2023-04-07T19:48:37.732Z,3.77
2023-04-07T19:51:25.806Z,4.50
2023-04-07T19:54:13.373Z,5.30
2023-04-07T19:57:01.715Z,5.10
2023-04-07T19:59:49.041Z,4.50
2023-04-07T20:02:37.479Z,4.85
2023-04-07T20:05:24.924Z,5.28
2023-04-07T20:08:12.270Z,5.35
2023-04-07T20:10:59.502Z,8.20
2023-04-07T20:13:49.478Z,5.72
2023-04-07T20:16:37.209Z,3.67
2023-04-07T20:19:24.642Z,4.92
2023-04-07T20:22:12.117Z,4.62
2023-04-07T20:24:59.829Z,4.45
2023-04-07T20:27:48.705Z,5.08
2023-04-07T20:30:36.572Z,6.50
2023-04-07T20:33:24.131Z,4.80
2023-04-07T20:36:12.013Z,3.60
2023-04-07T20:38:59.460Z,3.70
2023-04-07T20:41:46.991Z,4.33
2023-04-07T20:44:34.473Z,5.92
2023-04-07T20:47:24.958Z,3.30
2023-04-07T20:50:11.981Z,4.83
2023-04-07T20:53:01.596Z,4.78
2023-04-07T20:55:49.102Z,7.05
2023-04-07T20:58:37.142Z,7.22
2023-04-07T21:01:24.643Z,6.95
2023-04-07T21:04:12.342Z,10.28
2023-04-07T21:07:00.052Z,11.08
2023-04-07T21:09:48.166Z,6.87
2023-04-07T21:12:35.714Z,5.60
2023-04-07T21:15:23.277Z,5.55
2023-04-07T21:18:10.755Z,8.70
2023-04-07T21:20:59.894Z,6.12
2023-04-07T21:23:47.028Z,12.70
2023-04-07T21:26:34.113Z,7.70
2023-04-07T21:29:22.566Z,7.53
2023-04-07T21:32:13.942Z,8.13
2023-04-07T21:35:01.850Z,9.03
2023-04-07T21:37:49.358Z,5.87
2023-04-07T21:40:36.628Z,12.05
2023-04-07T21:43:24.837Z,10.38
2023-04-07T21:46:14.054Z,5.85
2023-04-07T21:49:02.332Z,5.30
2023-04-07T21:51:50.207Z,7.37
2023-04-07T21:54:37.828Z,9.88
2023-04-07T21:57:25.483Z,7.00
2023-04-07T22:00:14.077Z,5.08
2023-04-07T22:03:01.772Z,7.95
2023-04-07T22:05:49.284Z,6.55
2023-04-07T22:08:36.867Z,6.00
2023-04-07T22:11:24.164Z,9.50
2023-04-07T22:14:11.639Z,9.83
2023-04-07T22:16:59.423Z,8.43
2023-04-07T22:19:46.661Z,6.55
2023-04-07T22:22:34.094Z,9.55
2023-04-07T22:25:21.322Z,8.50
2023-04-07T22:28:09.162Z,8.63
2023-04-07T22:30:58.056Z,7.35
2023-04-07T22:33:45.738Z,7.37
2023-04-07T22:36:48.300Z,9.50
2023-04-07T22:39:35.976Z,5.65
2023-04-07T22:42:23.074Z,7.78
2023-04-07T22:45:10.914Z,5.87
2023-04-07T22:47:58.685Z,7.35
2023-04-07T22:50:46.318Z,5.25
2023-04-07T22:53:33.859Z,4.40
2023-04-07T22:56:21.228Z,5.97
2023-04-07T22:59:09.097Z,5.08
2023-04-07T23:01:57.820Z,5.85
2023-04-07T23:04:47.073Z,4.50
2023-04-07T23:07:34.643Z,5.65
2023-04-07T23:10:22.238Z,4.70
2023-04-07T23:13:09.652Z,7.42
2023-04-07T23:15:57.987Z,5.03
2023-04-07T23:18:45.643Z,6.35
2023-04-07T23:21:33.333Z,5.08
2023-04-07T23:24:20.783Z,5.00
2023-04-07T23:27:08.235Z,6.53
2023-04-07T23:29:55.550Z,7.40
2023-04-07T23:32:42.851Z,5.80
2023-04-07T23:35:31.061Z,4.95
2023-04-07T23:38:18.190Z,5.60
2023-04-07T23:41:05.521Z,5.12
2023-04-07T23:43:53.021Z,4.75
2023-04-07T23:46:41.826Z,7.60
2023-04-07T23:49:29.153Z,6.35
2023-04-07T23:52:16.870Z,4.55
2023-04-07T23:55:04.524Z,5.10
2023-04-07T23:57:52.167Z,6.47
